Time;durP1;ratioP1;P1;durP2;ratioP2;P2;SDS_P1;SDS_P2;PMS_P1;PMS_P2;Temp;Humidity;BMP_temperature;BMP_pressure;BME280_temperature;BME280_humidity;BME280_pressure;Samples;Min_cycle;Max_cycle;Signal;HPM_P1;HPM_P2
2023/07/08 00:02:12;;;;;;;;;9.25;9.25;;;;;-146.67;32.19;73435.94;5101455;27;61988;-80
2023/07/08 00:04:39;;;;;;;;;17.75;11.50;;;;;-146.67;32.33;73433.94;5102632;27;62211;-80
2023/07/08 00:07:05;;;;;;;;;13.00;10.75;;;;;-146.67;32.53;73435.94;5101135;27;62206;-80
2023/07/08 00:09:31;;;;;;;;;15.50;12.50;;;;;-146.67;32.67;73431.94;5103064;27;61826;-80
2023/07/08 00:11:59;;;;;;;;;22.50;12.50;;;;;-146.67;32.63;73441.94;5102864;27;62114;-80
2023/07/08 00:14:25;;;;;;;;;13.00;11.00;;;;;-146.67;32.57;73447.91;5118116;27;63830;-80
2023/07/08 00:16:51;;;;;;;;;18.25;14.00;;;;;-146.67;32.33;73447.91;5102810;27;61909;-80
2023/07/08 00:19:19;;;;;;;;;17.75;13.00;;;;;-146.67;32.46;73461.88;5102299;27;62043;-80
2023/07/08 00:21:45;;;;;;;;;20.50;13.75;;;;;-146.67;32.92;73467.88;5102802;27;61833;-80
2023/07/08 00:24:12;;;;;;;;;16.25;12.50;;;;;-146.67;32.57;73471.88;5112441;27;63273;-80
2023/07/08 00:26:37;;;;;;;;;19.00;16.75;;;;;-146.67;32.42;73477.84;5123324;27;61932;-80
2023/07/08 00:29:08;;;;;;;;;22.25;15.50;;;;;-146.67;32.50;73477.84;5116639;27;61924;-80
2023/07/08 00:31:33;;;;;;;;;22.75;20.00;;;;;-146.67;32.51;73485.84;5102649;27;61959;-80
2023/07/08 00:33:58;;;;;;;;;17.50;15.25;;;;;-146.67;32.58;73477.84;5104389;27;63751;-80
2023/07/08 00:36:27;;;;;;;;;20.75;16.75;;;;;-146.67;32.66;73475.88;5106360;27;61790;-80
2023/07/08 00:38:53;;;;;;;;;18.50;15.00;;;;;-146.67;32.66;73477.84;5104779;27;61928;-80
2023/07/08 00:41:21;;;;;;;;;18.75;17.00;;;;;-146.67;32.66;73485.84;5106135;27;62098;-80
2023/07/08 00:43:54;;;;;;;;;21.25;15.00;;;;;-146.67;33.03;73491.84;5102049;27;61829;-80
2023/07/08 00:46:31;;;;;;;;;15.75;14.75;;;;;-146.67;32.48;73485.84;5084106;28;61777;-80
2023/07/08 00:49:06;;;;;;;;;17.00;14.75;;;;;-146.67;32.52;73489.84;5094123;27;61875;-80
2023/07/08 00:51:32;;;;;;;;;18.50;15.50;;;;;-146.67;32.69;73497.81;5102847;27;61754;-80
2023/07/08 00:53:57;;;;;;;;;18.00;15.50;;;;;-146.67;32.98;73497.81;5086493;27;62936;-80
2023/07/08 00:56:34;;;;;;;;;18.25;13.75;;;;;-146.67;32.73;73499.81;5105818;27;61773;-80
2023/07/08 00:59:07;;;;;;;;;19.00;17.50;;;;;-146.67;32.44;73477.84;5106109;27;61854;-80
2023/07/08 01:01:37;;;;;;;;;15.00;13.00;;;;;-146.67;32.64;73473.88;5104650;27;61844;-80
2023/07/08 01:04:07;;;;;;;;;20.00;16.25;;;;;-146.67;32.50;73463.88;5104006;27;63861;-80
2023/07/08 01:06:39;;;;;;;;;20.00;16.50;;;;;-146.67;32.65;73473.88;5104896;27;62038;-80
2023/07/08 01:09:07;;;;;;;;;17.00;15.50;;;;;-146.67;32.82;73479.84;5104887;27;61738;-80
2023/07/08 01:11:37;;;;;;;;;19.00;17.50;;;;;-146.67;32.66;73483.84;5104314;27;61832;-80
2023/07/08 01:14:05;;;;;;;;;17.00;15.00;;;;;-146.67;33.10;73483.84;5104183;27;61909;-80
2023/07/08 01:16:33;;;;;;;;;13.75;12.00;;;;;-146.67;32.84;73487.84;5103861;27;61959;-80
2023/07/08 01:19:00;;;;;;;;;18.00;16.00;;;;;-146.67;33.13;73491.84;5103013;27;61832;-80
2023/07/08 01:21:37;;;;;;;;;15.25;13.25;;;;;-146.67;32.75;73497.81;5103801;27;61884;-80
2023/07/08 01:24:07;;;;;;;;;12.75;12.75;;;;;-146.67;32.93;73509.78;5104467;27;62055;-80
2023/07/08 01:26:37;;;;;;;;;18.25;15.00;;;;;-146.67;33.06;73517.78;5103973;27;61963;-80
2023/07/08 01:29:03;;;;;;;;;17.75;14.50;;;;;-146.67;32.95;73519.78;5121319;27;61791;-80
2023/07/08 01:31:29;;;;;;;;;18.00;15.75;;;;;-146.67;33.00;73515.78;5105457;27;61877;-80
2023/07/08 01:33:55;;;;;;;;;18.50;14.50;;;;;-146.67;33.49;73515.78;5104924;27;63263;-80
2023/07/08 01:36:21;;;;;;;;;15.50;15.50;;;;;-146.67;33.46;73525.75;5105318;27;61741;-80
2023/07/08 01:38:47;;;;;;;;;14.75;13.00;;;;;-146.67;33.29;73531.75;5104973;27;61872;-80
2023/07/08 01:41:15;;;;;;;;;18.25;18.00;;;;;-146.67;33.08;73543.72;5105419;27;61892;-80
2023/07/08 01:43:40;;;;;;;;;15.25;15.00;;;;;-146.67;33.32;73539.72;5103201;27;62491;-80
2023/07/08 01:46:15;;;;;;;;;19.25;13.50;;;;;-146.67;33.18;73547.72;5105313;27;61782;-80
2023/07/08 01:48:46;;;;;;;;;15.00;15.00;;;;;-146.67;33.35;73555.69;5104866;27;61784;-80
2023/07/08 01:51:12;;;;;;;;;15.75;14.00;;;;;-146.67;33.13;73569.66;5105057;27;61812;-80
2023/07/08 01:53:41;;;;;;;;;16.00;15.00;;;;;-146.67;33.51;73631.53;5102925;27;63629;-80
2023/07/08 01:56:07;;;;;;;;;14.50;13.25;;;;;-146.67;33.25;73639.53;5105169;27;62062;-80
2023/07/08 01:58:33;;;;;;;;;17.00;14.25;;;;;-146.67;33.24;73637.53;5103381;27;61921;-80
2023/07/08 02:01:00;;;;;;;;;12.75;10.00;;;;;-146.67;32.82;73637.53;5103758;27;61820;-80
2023/07/08 02:03:25;;;;;;;;;9.50;8.75;;;;;-146.67;32.82;73637.53;5103068;27;64787;-80
2023/07/08 02:05:51;;;;;;;;;12.75;9.00;;;;;-146.67;32.61;73637.53;5104548;27;61808;-80
2023/07/08 02:08:16;;;;;;;;;6.50;6.50;;;;;-146.67;32.53;73643.53;5104763;27;61862;-80
2023/07/08 02:10:43;;;;;;;;;6.25;5.00;;;;;-146.67;32.61;73635.53;5104996;27;61730;-80
2023/07/08 02:13:09;;;;;;;;;8.00;7.00;;;;;-146.67;32.95;73661.50;5104097;27;61737;-80
2023/07/08 02:15:34;;;;;;;;;4.75;4.75;;;;;-146.67;32.88;73647.50;5104739;27;61676;-80
2023/07/08 02:17:59;;;;;;;;;8.25;5.50;;;;;-146.67;33.01;73661.50;5104565;27;62436;-80
2023/07/08 02:20:25;;;;;;;;;5.75;4.00;;;;;-146.67;33.39;73659.50;5104669;27;62664;-80
2023/07/08 02:22:50;;;;;;;;;6.75;6.00;;;;;-146.67;33.28;73667.47;5102663;27;63617;-80
2023/07/08 02:25:16;;;;;;;;;6.75;6.00;;;;;-146.67;33.33;73655.50;5104677;27;62159;-79
2023/07/08 02:27:42;;;;;;;;;4.75;4.75;;;;;-146.67;34.28;73665.47;5103114;27;62437;-81
2023/07/08 02:30:08;;;;;;;;;8.25;3.75;;;;;-146.67;33.71;73683.44;5103463;27;62178;-81
2023/07/08 02:32:35;;;;;;;;;6.75;5.00;;;;;-146.67;34.61;73689.44;5103813;27;61939;-80
2023/07/08 02:35:02;;;;;;;;;3.75;2.50;;;;;-146.67;35.09;73703.41;5104338;27;61995;-81
2023/07/08 02:37:28;;;;;;;;;1.67;1.67;;;;;-146.67;34.96;73685.44;5103313;27;61945;-81
2023/07/08 02:39:54;;;;;;;;;5.00;3.00;;;;;-146.67;35.27;73713.38;5104226;27;61796;-80
2023/07/08 02:42:19;;;;;;;;;5.00;2.00;;;;;-146.67;35.47;73725.38;5103846;27;61755;-81
2023/07/08 02:44:44;;;;;;;;;0.67;0.67;;;;;-146.67;35.36;73713.38;5102932;27;61797;-81
2023/07/08 02:47:10;;;;;;;;;0.67;0.67;;;;;-146.67;35.19;73715.38;5104193;27;61980;-80
2023/07/08 02:49:35;;;;;;;;;0.33;0.33;;;;;-146.67;35.46;73725.38;5104100;27;61887;-80
2023/07/08 02:52:01;;;;;;;;;2.50;2.00;;;;;-146.67;35.13;73721.38;5103596;27;61943;-80
2023/07/08 02:54:26;;;;;;;;;0.67;0.67;;;;;-146.67;35.21;73713.38;5103657;27;61772;-80
2023/07/08 02:56:51;;;;;;;;;2.00;2.00;;;;;-146.67;35.31;73715.38;5104029;27;62525;-80
2023/07/08 02:59:17;;;;;;;;;2.33;1.67;;;;;-146.67;35.04;73709.41;5102911;27;61847;-80
2023/07/08 03:01:42;;;;;;;;;1.00;1.00;;;;;-146.67;34.88;73715.38;5119284;27;63579;-80
2023/07/08 03:04:13;;;;;;;;;1.00;1.00;;;;;-146.67;35.07;73721.38;5103927;27;62398;-81
2023/07/08 03:06:43;;;;;;;;;0.00;0.00;;;;;-146.67;34.73;73721.38;5102849;27;61747;-80
2023/07/08 03:09:11;;;;;;;;;3.00;1.67;;;;;-146.67;34.99;73723.38;5104063;27;61761;-80
2023/07/08 03:11:38;;;;;;;;;2.33;1.00;;;;;-146.67;35.10;73725.38;5101703;27;64201;-80
2023/07/08 03:14:03;;;;;;;;;0.33;0.33;;;;;-146.67;34.87;73737.34;5103999;27;61839;-80
2023/07/08 03:16:29;;;;;;;;;2.00;1.00;;;;;-146.67;34.93;73735.34;5103828;27;61805;-80
2023/07/08 03:18:54;;;;;;;;;2.33;2.00;;;;;-146.67;35.07;73741.34;5102145;27;61714;-80
2023/07/08 03:21:20;;;;;;;;;1.50;0.50;;;;;-146.67;34.77;73735.34;5101952;27;63726;-80
2023/07/08 03:23:47;;;;;;;;;1.67;0.00;;;;;-146.67;34.74;73739.34;5102133;27;61968;-80
2023/07/08 03:26:24;;;;;;;;;3.00;1.00;;;;;-146.67;34.62;73733.34;5102671;27;61881;-80
2023/07/08 03:28:50;;;;;;;;;1.00;1.00;;;;;-146.67;34.37;73721.38;5103736;27;61850;-80
2023/07/08 03:31:16;;;;;;;;;1.00;1.00;;;;;-146.67;34.31;73709.41;5118884;27;64047;-80
2023/07/08 03:33:41;;;;;;;;;1.00;1.00;;;;;-146.67;34.70;73705.41;5103172;27;61644;-80
2023/07/08 03:36:22;;;;;;;;;1.25;1.25;;;;;-146.67;34.29;73717.38;5103862;27;61748;-80
2023/07/08 03:38:48;;;;;;;;;2.50;0.75;;;;;-146.67;34.57;73725.38;5103535;27;62172;-80
2023/07/08 03:41:14;;;;;;;;;0.67;0.67;;;;;-146.67;34.82;73723.38;5102808;27;61823;-80
2023/07/08 03:43:39;;;;;;;;;0.00;0.00;;;;;-146.67;34.50;73723.38;5103445;27;61814;-80
2023/07/08 03:46:04;;;;;;;;;0.00;0.00;;;;;-146.67;34.84;73729.34;5103569;27;62050;-80
2023/07/08 03:48:30;;;;;;;;;1.33;0.67;;;;;-146.67;34.91;73725.38;5102845;27;61974;-80
2023/07/08 03:50:55;;;;;;;;;0.33;0.00;;;;;-146.67;34.48;73717.38;5102682;27;62124;-80
2023/07/08 03:53:20;;;;;;;;;0.33;0.33;;;;;-146.67;34.54;73709.41;5103286;27;61686;-80
2023/07/08 03:55:46;;;;;;;;;1.00;1.00;;;;;-146.67;34.53;73707.41;5101799;27;61984;-80
2023/07/08 03:58:11;;;;;;;;;1.00;0.67;;;;;-146.67;34.50;73705.41;5103816;27;61978;-80
2023/07/08 04:00:36;;;;;;;;;0.33;0.33;;;;;-146.67;34.59;73701.41;5101540;27;63930;-80
2023/07/08 04:03:02;;;;;;;;;2.00;1.00;;;;;-146.67;34.76;73697.41;5102638;27;61853;-80
2023/07/08 04:05:27;;;;;;;;;1.00;1.00;;;;;-146.67;34.68;73673.47;5101724;27;61793;-80
2023/07/08 04:07:53;;;;;;;;;0.67;0.67;;;;;-146.67;34.50;73663.47;5102428;27;62170;-80
2023/07/08 04:10:18;;;;;;;;;1.33;1.00;;;;;-146.67;34.50;73659.50;5118362;27;64959;-80
2023/07/08 04:12:44;;;;;;;;;0.33;0.33;;;;;-146.67;34.51;73659.50;5101938;27;61862;-80
2023/07/08 04:15:11;;;;;;;;;1.33;1.00;;;;;-146.67;34.33;73653.50;5101722;27;61973;-80
2023/07/08 04:17:45;;;;;;;;;1.00;1.00;;;;;-146.67;34.33;73643.53;5102324;27;61838;-80
2023/07/08 04:20:14;;;;;;;;;0.67;0.67;;;;;-146.67;34.66;73661.50;5101041;27;63562;-79
2023/07/08 04:22:43;;;;;;;;;0.67;0.67;;;;;-146.67;34.64;73659.50;5102815;27;61808;-80
2023/07/08 04:25:12;;;;;;;;;2.67;1.00;;;;;-146.67;34.29;73655.50;5102770;27;61773;-80
2023/07/08 04:27:38;;;;;;;;;3.00;2.00;;;;;-146.67;34.57;73675.47;5101571;27;61948;-80
2023/07/08 04:30:04;;;;;;;;;1.00;1.00;;;;;-146.67;34.54;73679.44;5100757;27;64169;-80
2023/07/08 04:32:30;;;;;;;;;3.50;2.00;;;;;-146.67;34.66;73673.47;5102678;27;62031;-80
2023/07/08 04:34:55;;;;;;;;;1.00;1.00;;;;;-146.67;34.66;73677.47;5102857;27;61845;-80
2023/07/08 04:37:20;;;;;;;;;1.00;1.00;;;;;-146.67;34.84;73701.41;5102865;27;61756;-80
2023/07/08 04:39:46;;;;;;;;;4.00;1.00;;;;;-146.67;34.48;73687.44;5100640;27;65091;-80
2023/07/08 04:42:17;;;;;;;;;1.75;1.00;;;;;-146.67;34.51;73679.44;5118417;27;61705;-80
2023/07/08 04:44:43;;;;;;;;;1.00;1.00;;;;;-146.67;34.53;73675.47;5102981;27;61940;-80
2023/07/08 04:47:12;;;;;;;;;1.75;1.75;;;;;-146.67;34.73;73681.44;5101648;27;61884;-80
2023/07/08 04:49:37;;;;;;;;;2.00;0.67;;;;;-146.67;34.77;73685.44;5117757;27;63768;-80
2023/07/08 04:52:03;;;;;;;;;1.75;1.00;;;;;-146.67;34.80;73683.44;5102078;27;61932;-80
2023/07/08 04:54:29;;;;;;;;;1.00;1.00;;;;;-146.67;34.45;73685.44;5101110;27;61952;-80
2023/07/08 04:56:54;;;;;;;;;1.00;1.00;;;;;-146.67;34.59;73681.44;5103032;27;61880;-80
2023/07/08 04:59:25;;;;;;;;;1.00;1.00;;;;;-146.67;34.64;73685.44;5101635;27;62966;-80
2023/07/08 05:01:54;;;;;;;;;4.00;1.00;;;;;-146.67;34.62;73685.44;5102181;27;61709;-80
2023/07/08 05:04:22;;;;;;;;;1.50;1.50;;;;;-146.67;34.56;73685.44;5118110;27;62199;-80
2023/07/08 05:06:48;;;;;;;;;1.50;1.50;;;;;-146.67;34.56;73691.44;5100916;27;61791;-80
2023/07/08 05:09:13;;;;;;;;;2.33;0.33;;;;;-146.67;34.56;73695.41;5101083;27;62674;-81
2023/07/08 05:11:39;;;;;;;;;3.67;1.00;;;;;-146.67;34.37;73701.41;5100925;27;61936;-80
2023/07/08 05:14:04;;;;;;;;;0.67;0.67;;;;;-146.67;34.50;73713.38;5102365;27;61908;-80
2023/07/08 05:16:33;;;;;;;;;3.33;2.00;;;;;-146.67;34.47;73703.41;5102204;27;61772;-81
2023/07/08 05:18:58;;;;;;;;;2.00;1.00;;;;;-146.67;34.51;73705.41;5102605;27;63548;-81
2023/07/08 05:21:24;;;;;;;;;2.00;1.00;;;;;-146.67;34.67;73695.41;5105568;27;61736;-81
2023/07/08 05:23:50;;;;;;;;;1.00;1.00;;;;;-146.67;34.42;73697.41;5105794;27;61777;-80
2023/07/08 05:26:16;;;;;;;;;2.00;2.00;;;;;-146.67;34.73;73703.41;5106102;27;62149;-80
2023/07/08 05:28:42;;;;;;;;;2.00;0.00;;;;;-146.67;34.70;73707.41;5104823;27;63176;-79
2023/07/08 05:31:07;;;;;;;;;1.00;1.00;;;;;-146.67;34.86;73703.41;5102818;27;62066;-81
2023/07/08 05:33:34;;;;;;;;;1.00;1.00;;;;;-146.67;35.01;73697.41;5105313;27;61800;-81
2023/07/08 05:36:00;;;;;;;;;0.67;0.67;;;;;-146.67;35.26;73695.41;5104102;27;61817;-77
2023/07/08 05:38:26;;;;;;;;;0.25;0.25;;;;;-146.67;35.04;73697.41;5119975;27;63754;-79
2023/07/08 05:40:55;;;;;;;;;0.50;0.50;;;;;-146.67;35.10;73693.44;5105313;27;61938;-78
2023/07/08 05:43:20;;;;;;;;;1.00;1.00;;;;;-146.67;35.02;73697.41;5104771;27;61953;-78
2023/07/08 05:45:46;;;;;;;;;4.00;2.00;;;;;-146.67;34.81;73701.41;5105441;27;61758;-78
2023/07/08 05:48:11;;;;;;;;;2.67;2.00;;;;;-146.67;35.00;73697.41;5104218;27;61990;-78
2023/07/08 05:50:38;;;;;;;;;3.33;2.00;;;;;-146.67;35.07;73703.41;5105056;27;61997;-78
2023/07/08 05:53:04;;;;;;;;;2.00;2.00;;;;;-146.67;34.76;73701.41;5105282;27;61770;-78
2023/07/08 05:55:30;;;;;;;;;2.67;1.33;;;;;-146.67;34.83;73687.44;5103415;27;62217;-78
2023/07/08 05:57:56;;;;;;;;;0.33;0.33;;;;;-146.67;34.41;73673.47;5104205;27;61731;-78
2023/07/08 06:00:21;;;;;;;;;0.67;0.67;;;;;-146.67;34.61;73677.47;5103156;27;61789;-78
2023/07/08 06:02:46;;;;;;;;;1.00;1.00;;;;;-146.67;34.76;73679.44;5103748;27;61760;-73
2023/07/08 06:05:12;;;;;;;;;2.75;2.75;;;;;-146.67;34.82;73675.47;5105179;27;61967;-73
2023/07/08 06:07:37;;;;;;;;;0.75;0.75;;;;;-146.67;34.42;73671.47;5103891;27;61702;-73
2023/07/08 06:10:03;;;;;;;;;1.00;1.00;;;;;-146.67;34.70;73669.47;5104639;27;61917;-74
2023/07/08 06:12:30;;;;;;;;;1.33;1.00;;;;;-146.67;34.45;73669.47;5104337;27;61834;-74
2023/07/08 06:14:55;;;;;;;;;1.00;1.00;;;;;-146.67;34.15;73645.53;5103899;27;61823;-74
2023/07/08 06:17:20;;;;;;;;;1.00;1.00;;;;;-146.67;33.80;73609.59;5103460;27;62042;-73
2023/07/08 06:19:46;;;;;;;;;0.67;0.67;;;;;-146.67;33.65;73561.69;5104538;27;61918;-74
2023/07/08 06:22:11;;;;;;;;;1.67;0.67;;;;;-146.67;33.26;73555.69;5103366;27;61986;-74
2023/07/08 06:24:37;;;;;;;;;0.33;0.33;;;;;-146.67;33.54;73551.72;5104877;27;61862;-74
2023/07/08 06:27:02;;;;;;;;;1.00;1.00;;;;;-146.67;32.64;73483.84;5103702;27;62626;-74
2023/07/08 06:29:28;;;;;;;;;2.00;2.00;;;;;-146.67;32.09;73376.06;5103738;27;61980;-74
2023/07/08 06:31:53;;;;;;;;;2.67;0.00;;;;;-146.67;30.97;73228.38;5104608;27;62046;-74
2023/07/08 06:34:22;;;;;;;;;3.00;1.33;;;;;-146.67;30.40;73160.50;5104726;27;62018;-74
2023/07/08 06:36:48;;;;;;;;;1.33;1.33;;;;;-146.67;29.85;73150.53;5103914;27;61841;-74
2023/07/08 06:39:13;;;;;;;;;3.33;2.00;;;;;-146.67;29.70;73138.56;5104126;27;61815;-74
2023/07/08 06:41:38;;;;;;;;;1.33;1.00;;;;;-146.67;30.23;73178.47;5103998;27;61993;-74
2023/07/08 06:44:04;;;;;;;;;0.67;0.67;;;;;-146.67;30.49;73224.38;5104407;27;61702;-74
2023/07/08 06:46:29;;;;;;;;;1.67;1.67;;;;;-146.67;30.89;73266.28;5102036;27;63601;-74
2023/07/08 06:48:55;;;;;;;;;0.67;0.67;;;;;-146.67;30.94;73288.25;5103635;27;61705;-75
2023/07/08 06:51:20;;;;;;;;;2.00;2.00;;;;;-146.67;30.89;73294.22;5104334;27;61726;-74
2023/07/08 06:53:45;;;;;;;;;1.33;0.67;;;;;-146.67;31.17;73306.22;5103815;27;62110;-74
2023/07/08 06:56:11;;;;;;;;;3.67;2.00;;;;;-146.67;31.20;73320.19;5101400;27;63503;-73
2023/07/08 06:58:36;;;;;;;;;0.67;0.67;;;;;-146.67;31.09;73334.16;5103346;27;61836;-86
2023/07/08 07:01:02;;;;;;;;;1.00;1.00;;;;;-146.67;31.19;73344.13;5103561;27;61831;-87
2023/07/08 07:03:28;;;;;;;;;1.33;1.33;;;;;-146.67;31.58;73356.09;5104414;27;61764;-86
2023/07/08 07:05:53;;;;;;;;;1.00;1.00;;;;;-146.67;31.28;73364.09;5103282;27;62105;-84
2023/07/08 07:08:18;;;;;;;;;2.00;2.00;;;;;-146.67;31.53;73382.06;5103746;27;61793;-92
2023/07/08 07:10:44;;;;;;;;;1.00;1.00;;;;;-146.67;31.51;73390.03;5103829;27;61897;-82
2023/07/08 07:13:09;;;;;;;;;0.67;0.67;;;;;-146.67;31.36;73410.00;5104306;27;61836;-86
2023/07/08 07:15:34;;;;;;;;;4.33;0.67;;;;;-146.67;31.24;73419.97;5108868;27;61883;-84
2023/07/08 07:18:00;;;;;;;;;1.67;1.67;;;;;-146.67;31.66;73433.94;5123974;27;61710;-84
2023/07/08 07:20:26;;;;;;;;;2.33;1.33;;;;;-146.67;31.43;73439.94;5118102;27;61977;-82
2023/07/08 07:22:52;;;;;;;;;0.67;0.67;;;;;-146.67;31.37;73455.91;5119222;27;62282;-82
2023/07/08 07:25:18;;;;;;;;;3.33;1.67;;;;;-146.67;31.62;73457.91;5101600;27;63757;-86
2023/07/08 07:27:43;;;;;;;;;2.67;1.33;;;;;-146.67;31.57;73467.88;5103328;27;61867;-79
2023/07/08 07:30:14;;;;;;;;;1.67;1.67;;;;;-146.67;31.71;73459.91;5103162;27;61967;-81
2023/07/08 07:32:43;;;;;;;;;3.33;2.67;;;;;-146.67;31.54;73457.91;5102698;27;62136;-82
2023/07/08 07:35:14;;;;;;;;;1.67;1.00;;;;;-146.67;31.76;73465.88;5102854;27;63062;-81
2023/07/08 07:37:44;;;;;;;;;1.00;1.00;;;;;-146.67;31.68;73471.88;5103474;27;61939;-80
2023/07/08 07:40:12;;;;;;;;;0.67;0.67;;;;;-146.67;31.64;73485.84;5102720;27;62168;-83
2023/07/08 07:42:39;;;;;;;;;2.33;1.00;;;;;-146.67;31.84;73481.84;5101434;27;61913;-79
2023/07/08 07:45:05;;;;;;;;;3.00;3.00;;;;;-146.67;31.90;73499.81;5102048;27;61836;-76
2023/07/08 07:47:31;;;;;;;;;1.67;1.33;;;;;-146.67;32.19;73489.84;5102714;27;61951;-76
2023/07/08 07:49:56;;;;;;;;;3.33;1.00;;;;;-146.67;32.02;73493.81;5102723;27;61731;-83
2023/07/08 07:52:24;;;;;;;;;1.33;1.00;;;;;-146.67;31.93;73489.84;5102180;27;61903;-84
2023/07/08 07:54:50;;;;;;;;;2.33;1.00;;;;;-146.67;32.07;73493.81;5100657;27;64041;-75
2023/07/08 07:57:15;;;;;;;;;2.00;2.00;;;;;-146.67;32.18;73489.84;5103191;27;61692;-75
2023/07/08 07:59:40;;;;;;;;;1.00;1.00;;;;;-146.67;32.08;73501.81;5103036;27;61745;-81
2023/07/08 08:02:07;;;;;;;;;1.00;1.00;;;;;-146.67;32.20;73499.81;5101563;27;61860;-79
2023/07/08 08:04:33;;;;;;;;;5.67;2.33;;;;;-146.67;32.24;73507.78;5102560;27;62926;-79
2023/07/08 08:06:59;;;;;;;;;5.67;1.33;;;;;-146.67;32.41;73503.81;5102804;27;61836;-79
2023/07/08 08:09:24;;;;;;;;;1.67;1.67;;;;;-146.67;32.58;73497.81;5102850;27;61776;-78
2023/07/08 08:11:51;;;;;;;;;1.67;1.67;;;;;-146.67;32.61;73493.81;5103164;27;61787;-79
2023/07/08 08:14:17;;;;;;;;;2.33;2.33;;;;;-146.67;32.60;73499.81;5100247;27;63794;-79
2023/07/08 08:16:43;;;;;;;;;2.00;2.00;;;;;-146.67;32.54;73493.81;5101361;27;61951;-79
2023/07/08 08:19:09;;;;;;;;;1.00;1.00;;;;;-146.67;32.44;73485.84;5100880;27;61847;-77
2023/07/08 08:22:18;;;;;;;;;2.67;2.67;;;;;-146.67;32.45;73481.84;5102998;27;61844;-80
2023/07/08 08:24:43;;;;;;;;;3.33;3.00;;;;;-146.67;32.07;73471.88;5101457;27;61930;-76
2023/07/08 08:27:08;;;;;;;;;2.67;1.00;;;;;-146.67;32.47;73483.84;5102234;27;61821;-74
2023/07/08 08:29:34;;;;;;;;;3.00;3.00;;;;;-146.67;32.07;73477.84;5103106;27;62252;-74
2023/07/08 08:31:59;;;;;;;;;1.67;1.67;;;;;-146.67;32.13;73473.88;5102924;27;61761;-74
2023/07/08 08:34:24;;;;;;;;;2.00;2.00;;;;;-146.67;32.18;73465.88;5108231;27;62823;-74
2023/07/08 08:36:50;;;;;;;;;2.67;2.67;;;;;-146.67;32.16;73461.88;5121033;27;61947;-76
2023/07/08 08:39:15;;;;;;;;;4.00;2.33;;;;;-146.67;32.17;73465.88;5096302;27;61888;-76
2023/07/08 08:41:42;;;;;;;;;5.33;2.67;;;;;-146.67;32.30;73461.88;5102654;27;62199;-76
2023/07/08 08:44:15;;;;;;;;;3.67;2.67;;;;;-146.67;32.02;73457.91;5089452;27;62868;-76
2023/07/08 08:46:52;;;;;;;;;3.00;3.00;;;;;-146.67;32.30;73441.94;5082245;28;62221;-75
2023/07/08 08:49:20;;;;;;;;;6.00;2.33;;;;;-146.67;32.30;73449.91;5086774;27;62399;-75
2023/07/08 08:51:47;;;;;;;;;3.00;3.00;;;;;-146.67;32.21;73447.91;5100591;27;62092;-79
2023/07/08 08:54:12;;;;;;;;;4.67;2.00;;;;;-146.67;32.04;73445.91;5111613;27;63988;-79
2023/07/08 08:57:01;;;;;;;;;2.33;2.33;;;;;-146.67;32.44;73451.91;5126781;27;61701;-80
2023/07/08 08:59:29;;;;;;;;;3.67;3.67;;;;;-146.67;32.11;73441.94;5119365;27;62137;-76
2023/07/08 09:01:56;;;;;;;;;2.67;2.67;;;;;-146.67;32.38;73441.94;5106199;27;61915;-75
2023/07/08 09:04:28;;;;;;;;;5.00;3.33;;;;;-146.67;32.38;73437.94;5105294;27;61803;-75
2023/07/08 09:07:04;;;;;;;;;2.67;2.67;;;;;-146.67;32.49;73429.97;5105511;27;61924;-76
2023/07/08 09:09:42;;;;;;;;;1.00;1.00;;;;;-146.67;32.02;73441.94;5105181;27;61821;-77
2023/07/08 09:12:21;;;;;;;;;3.67;2.67;;;;;-146.67;32.32;73451.91;5105965;27;61813;-77
2023/07/08 09:14:47;;;;;;;;;5.00;3.67;;;;;-146.67;32.05;73439.94;5103872;27;63209;-77
2023/07/08 09:17:34;;;;;;;;;2.33;2.33;;;;;-146.67;31.92;73421.97;5105328;27;62228;-77
2023/07/08 09:20:03;;;;;;;;;8.67;7.67;;;;;-146.67;32.22;73402.00;5104556;27;61847;-77
2023/07/08 09:23:11;;;;;;;;;4.67;2.33;;;;;-146.67;31.89;73380.06;5103708;27;61865;-77
2023/07/08 09:25:46;;;;;;;;;5.00;5.00;;;;;-146.67;31.92;73348.13;5090132;27;61708;-77
2023/07/08 09:28:14;;;;;;;;;3.67;3.67;;;;;-146.67;31.92;73314.19;5105592;27;61974;-77
2023/07/08 09:30:39;;;;;;;;;3.00;3.00;;;;;-146.67;31.17;73284.25;5103965;27;61820;-78
2023/07/08 09:33:08;;;;;;;;;6.67;3.00;;;;;-146.67;31.17;73242.34;5091085;27;61799;-78
2023/07/08 09:35:40;;;;;;;;;3.00;3.00;;;;;-146.67;30.97;73204.44;5099668;27;63948;-78
2023/07/08 09:38:20;;;;;;;;;5.33;5.00;;;;;-146.67;30.94;73178.47;5116901;27;61911;-78
2023/07/08 09:40:53;;;;;;;;;3.00;3.00;;;;;-146.67;30.57;73152.53;5103654;27;61948;-77
2023/07/08 09:43:37;;;;;;;;;2.67;2.67;;;;;-146.67;30.48;73138.56;5100603;27;62106;-78
2023/07/08 09:46:02;;;;;;;;;2.67;2.67;;;;;-146.67;30.42;73130.59;5084102;27;61873;-76
2023/07/08 09:48:34;;;;;;;;;8.00;2.67;;;;;-146.67;30.15;73140.56;5097293;27;61916;-78
2023/07/08 09:51:00;;;;;;;;;5.00;3.33;;;;;-146.67;30.23;73164.50;5104861;27;61711;-80
2023/07/08 09:53:27;;;;;;;;;5.00;4.00;;;;;-146.67;30.65;73178.47;5105098;27;62025;-79
2023/07/08 09:55:53;;;;;;;;;3.33;3.00;;;;;-146.67;30.88;73192.44;5102758;27;64908;-80
2023/07/08 09:58:25;;;;;;;;;6.33;4.33;;;;;-146.67;30.85;73206.41;5104752;27;61950;-79
2023/07/08 10:01:05;;;;;;;;;2.67;2.67;;;;;-146.67;30.88;73218.41;5104962;27;61942;-79
2023/07/08 10:03:34;;;;;;;;;4.00;4.00;;;;;-146.67;31.00;73218.41;5104581;27;61785;-78
2023/07/08 10:06:05;;;;;;;;;3.00;2.67;;;;;-146.67;30.73;73246.34;5103481;27;63072;-79
2023/07/08 10:08:42;;;;;;;;;5.67;3.33;;;;;-146.67;31.27;73252.31;5104754;27;61724;-79
2023/07/08 10:11:17;;;;;;;;;5.00;3.67;;;;;-146.67;31.17;73240.34;5104934;27;62012;-77
2023/07/08 10:13:46;;;;;;;;;1.33;1.33;;;;;-146.67;31.46;73228.38;5104532;27;62104;-79
2023/07/08 10:16:25;;;;;;;;;5.00;3.33;;;;;-146.67;31.23;73214.41;5104251;27;62094;-78
2023/07/08 10:18:50;;;;;;;;;4.67;4.00;;;;;-146.67;31.36;73206.41;5103811;27;62084;-76
2023/07/08 10:21:28;;;;;;;;;7.33;3.67;;;;;-146.67;31.14;73200.44;5103143;27;61957;-77
2023/07/08 10:24:39;;;;;;;;;4.67;4.67;;;;;-146.67;30.71;73200.44;5104675;27;61979;-76
2023/07/08 10:27:34;;;;;;;;;6.00;3.67;;;;;-146.67;30.95;73216.41;5060468;28;62067;-76
2023/07/08 10:30:22;;;;;;;;;4.00;4.00;;;;;-146.67;30.66;73206.41;5054221;28;61999;-75
2023/07/08 10:32:52;;;;;;;;;3.67;2.00;;;;;-146.67;30.84;73196.44;5061069;28;61977;-77
2023/07/08 10:35:35;;;;;;;;;4.00;3.00;;;;;-146.67;30.71;73204.44;5061008;28;62889;-77
2023/07/08 10:38:13;;;;;;;;;5.00;4.00;;;;;-146.67;30.66;73202.44;5060317;28;63765;-76
2023/07/08 10:40:48;;;;;;;;;3.00;3.00;;;;;-146.67;30.47;73218.41;5063159;27;61997;-77
2023/07/08 10:43:32;;;;;;;;;4.33;3.33;;;;;-146.67;30.84;73188.47;5061019;28;62013;-77
2023/07/08 10:46:09;;;;;;;;;4.00;4.00;;;;;-146.67;30.33;73166.50;5040727;28;62261;-74
2023/07/08 10:48:47;;;;;;;;;3.33;3.33;;;;;-146.67;30.43;73168.50;5039324;28;62764;-74
2023/07/08 10:51:40;;;;;;;;;5.67;2.67;;;;;-146.67;30.57;73148.53;5040591;28;61935;-76
2023/07/08 10:54:25;;;;;;;;;5.00;5.00;;;;;-146.67;30.35;73144.56;5036111;28;62050;-72
2023/07/08 10:56:55;;;;;;;;;9.00;5.00;;;;;-146.67;30.46;73144.56;5020772;28;61933;-73
2023/07/08 10:59:51;;;;;;;;;4.00;3.67;;;;;-146.67;30.45;73140.56;5036783;28;64964;-77
2023/07/08 11:02:38;;;;;;;;;5.00;5.00;;;;;-146.67;30.18;73114.63;5036881;28;61930;-75
2023/07/08 11:05:36;;;;;;;;;3.67;3.67;;;;;-146.67;30.54;73096.66;5041940;28;61832;-76
2023/07/08 11:08:26;;;;;;;;;3.67;3.67;;;;;-146.67;29.80;73088.66;5042625;28;61874;-76
2023/07/08 11:11:08;;;;;;;;;4.00;4.00;;;;;-146.67;29.93;73086.69;5063657;28;62860;-79
2023/07/08 11:13:41;;;;;;;;;4.00;4.00;;;;;-146.67;29.55;73076.69;5083499;27;61877;-79
2023/07/08 11:16:20;;;;;;;;;3.00;3.00;;;;;-146.67;29.38;73072.69;5081558;28;61932;-79
2023/07/08 11:18:53;;;;;;;;;5.33;5.33;;;;;-146.67;29.76;73074.69;5082808;27;61813;-80
2023/07/08 11:21:27;;;;;;;;;8.33;5.33;;;;;-146.67;29.55;73060.72;5082547;27;61779;-80
2023/07/08 11:24:05;;;;;;;;;3.00;3.00;;;;;-146.67;29.53;73026.81;5082909;27;61806;-77